sensor_id;sensor_type;location;lat;lon;timestamp;pressure;altitude;pressure_sealevel;temperature;humidity
79461;BME280;68929;42.666;23.324;2023-06-19T00:02:00;94631.53;;;18.95;67.79
79461;BME280;68929;42.666;23.324;2023-06-19T00:04:26;94639.28;;;18.96;65.78
79461;BME280;68929;42.666;23.324;2023-06-19T00:06:52;94620.53;;;18.86;63.12
79461;BME280;68929;42.666;23.324;2023-06-19T00:09:18;94636.91;;;18.90;66.12
79461;BME280;68929;42.666;23.324;2023-06-19T00:11:43;94641.69;;;18.83;62.37
79461;BME280;68929;42.666;23.324;2023-06-19T00:14:09;94623.44;;;18.70;62.93
79461;BME280;68929;42.666;23.324;2023-06-19T00:16:34;94630.44;;;18.86;67.73
79461;BME280;68929;42.666;23.324;2023-06-19T00:18:59;94629.41;;;18.92;62.93
79461;BME280;68929;42.666;23.324;2023-06-19T00:21:25;94630.97;;;18.83;63.55
79461;BME280;68929;42.666;23.324;2023-06-19T00:23:51;94611.69;;;18.71;66.39
79461;BME280;68929;42.666;23.324;2023-06-19T00:26:17;94620.75;;;18.70;65.34
79461;BME280;68929;42.666;23.324;2023-06-19T00:28:43;94626.06;;;18.50;64.76
79461;BME280;68929;42.666;23.324;2023-06-19T00:31:10;94621.69;;;18.38;67.72
79461;BME280;68929;42.666;23.324;2023-06-19T00:33:39;94606.97;;;18.31;67.55
79461;BME280;68929;42.666;23.324;2023-06-19T00:36:09;94613.94;;;18.37;67.29
79461;BME280;68929;42.666;23.324;2023-06-19T00:38:34;94615.91;;;18.52;64.06
79461;BME280;68929;42.666;23.324;2023-06-19T00:41:00;94605.47;;;18.50;64.15
79461;BME280;68929;42.666;23.324;2023-06-19T00:43:26;94615.91;;;18.57;64.46
79461;BME280;68929;42.666;23.324;2023-06-19T00:45:51;94606.78;;;18.48;66.05
79461;BME280;68929;42.666;23.324;2023-06-19T00:48:17;94605.97;;;18.47;67.37
79461;BME280;68929;42.666;23.324;2023-06-19T00:50:42;94609.94;;;18.40;66.27
79461;BME280;68929;42.666;23.324;2023-06-19T00:53:08;94588.44;;;18.19;64.77
79461;BME280;68929;42.666;23.324;2023-06-19T00:55:33;94581.47;;;18.08;64.63
79461;BME280;68929;42.666;23.324;2023-06-19T00:58:00;94606.13;;;18.20;66.98
79461;BME280;68929;42.666;23.324;2023-06-19T01:00:26;94578.53;;;18.10;69.55
79461;BME280;68929;42.666;23.324;2023-06-19T01:02:51;94589.28;;;18.30;69.00
79461;BME280;68929;42.666;23.324;2023-06-19T01:05:17;94582.00;;;18.15;64.52
79461;BME280;68929;42.666;23.324;2023-06-19T01:10:21;94583.13;;;18.29;64.24
79461;BME280;68929;42.666;23.324;2023-06-19T01:13:01;94578.28;;;18.16;68.41
79461;BME280;68929;42.666;23.324;2023-06-19T01:15:28;94575.59;;;18.21;69.47
79461;BME280;68929;42.666;23.324;2023-06-19T01:17:56;94570.78;;;18.18;69.17
79461;BME280;68929;42.666;23.324;2023-06-19T01:20:22;94568.09;;;18.13;67.53
79461;BME280;68929;42.666;23.324;2023-06-19T01:22:48;94583.09;;;18.19;68.34
79461;BME280;68929;42.666;23.324;2023-06-19T01:25:13;94590.09;;;18.30;68.50
79461;BME280;68929;42.666;23.324;2023-06-19T01:27:40;94591.72;;;18.36;67.16
79461;BME280;68929;42.666;23.324;2023-06-19T01:30:06;94589.31;;;18.40;67.29
79461;BME280;68929;42.666;23.324;2023-06-19T01:32:51;94584.78;;;18.41;67.50
79461;BME280;68929;42.666;23.324;2023-06-19T01:35:19;94586.31;;;18.21;67.25
79461;BME280;68929;42.666;23.324;2023-06-19T01:37:48;94592.16;;;18.08;65.30
79461;BME280;68929;42.666;23.324;2023-06-19T01:40:14;94592.66;;;18.05;70.69
79461;BME280;68929;42.666;23.324;2023-06-19T01:42:41;94596.75;;;18.18;68.36
79461;BME280;68929;42.666;23.324;2023-06-19T01:45:08;94605.09;;;18.36;69.11
79461;BME280;68929;42.666;23.324;2023-06-19T01:47:34;94608.38;;;18.49;67.08
79461;BME280;68929;42.666;23.324;2023-06-19T01:50:00;94605.34;;;18.30;67.29
79461;BME280;68929;42.666;23.324;2023-06-19T01:52:26;94599.69;;;18.21;68.89
79461;BME280;68929;42.666;23.324;2023-06-19T01:54:51;94605.88;;;18.27;68.00
79461;BME280;68929;42.666;23.324;2023-06-19T01:57:17;94600.28;;;18.33;69.10
79461;BME280;68929;42.666;23.324;2023-06-19T01:59:43;94598.94;;;18.36;68.34
79461;BME280;68929;42.666;23.324;2023-06-19T02:02:09;94607.81;;;18.42;67.53
79461;BME280;68929;42.666;23.324;2023-06-19T02:04:35;94616.63;;;18.42;68.03
79461;BME280;68929;42.666;23.324;2023-06-19T02:07:01;94604.84;;;18.33;65.76
79461;BME280;68929;42.666;23.324;2023-06-19T02:09:26;94595.84;;;17.97;66.86
79461;BME280;68929;42.666;23.324;2023-06-19T02:11:51;94613.56;;;18.08;69.35
79461;BME280;68929;42.666;23.324;2023-06-19T02:14:17;94617.81;;;18.04;67.45
79461;BME280;68929;42.666;23.324;2023-06-19T02:16:42;94603.59;;;17.99;68.69
79461;BME280;68929;42.666;23.324;2023-06-19T02:19:12;94610.84;;;18.03;66.92
79461;BME280;68929;42.666;23.324;2023-06-19T02:21:38;94613.06;;;18.21;71.20
79461;BME280;68929;42.666;23.324;2023-06-19T02:24:04;94606.63;;;18.17;69.76
79461;BME280;68929;42.666;23.324;2023-06-19T02:26:30;94619.81;;;18.34;69.81
79461;BME280;68929;42.666;23.324;2023-06-19T02:28:55;94604.78;;;18.23;69.87
79461;BME280;68929;42.666;23.324;2023-06-19T02:31:22;94604.78;;;18.23;66.36
79461;BME280;68929;42.666;23.324;2023-06-19T02:33:47;94608.75;;;18.15;69.14
79461;BME280;68929;42.666;23.324;2023-06-19T02:36:13;94594.22;;;17.91;71.14
79461;BME280;68929;42.666;23.324;2023-06-19T02:38:43;94606.00;;;18.00;68.90
79461;BME280;68929;42.666;23.324;2023-06-19T02:41:09;94626.56;;;17.90;68.78
79461;BME280;68929;42.666;23.324;2023-06-19T02:43:34;94611.69;;;17.67;71.56
79461;BME280;68929;42.666;23.324;2023-06-19T02:45:59;94628.06;;;17.71;72.66
79461;BME280;68929;42.666;23.324;2023-06-19T02:48:25;94627.19;;;17.65;69.36
79461;BME280;68929;42.666;23.324;2023-06-19T02:50:50;94622.44;;;17.72;72.20
79461;BME280;68929;42.666;23.324;2023-06-19T02:53:15;94618.38;;;17.65;67.73
79461;BME280;68929;42.666;23.324;2023-06-19T02:55:41;94631.50;;;17.66;71.38
79461;BME280;68929;42.666;23.324;2023-06-19T02:58:07;94646.56;;;17.82;72.70
79461;BME280;68929;42.666;23.324;2023-06-19T03:00:32;94624.53;;;17.65;69.62
79461;BME280;68929;42.666;23.324;2023-06-19T03:02:58;94635.22;;;17.65;69.59
79461;BME280;68929;42.666;23.324;2023-06-19T03:05:24;94622.72;;;17.44;69.94
79461;BME280;68929;42.666;23.324;2023-06-19T03:07:51;94611.63;;;17.20;69.96
79461;BME280;68929;42.666;23.324;2023-06-19T03:10:17;94631.34;;;17.19;70.51
79461;BME280;68929;42.666;23.324;2023-06-19T03:12:42;94639.56;;;17.13;70.52
79461;BME280;68929;42.666;23.324;2023-06-19T03:15:08;94617.19;;;16.87;70.80
79461;BME280;68929;42.666;23.324;2023-06-19T03:17:33;94620.56;;;16.77;71.98
79461;BME280;68929;42.666;23.324;2023-06-19T03:19:59;94643.91;;;16.87;70.78
79461;BME280;68929;42.666;23.324;2023-06-19T03:22:24;94626.50;;;16.85;71.24
79461;BME280;68929;42.666;23.324;2023-06-19T03:24:49;94620.00;;;16.75;71.11
79461;BME280;68929;42.666;23.324;2023-06-19T03:27:15;94630.75;;;16.81;71.71
79461;BME280;68929;42.666;23.324;2023-06-19T03:29:40;94634.53;;;16.85;71.08
79461;BME280;68929;42.666;23.324;2023-06-19T03:32:06;94629.66;;;16.82;70.50
79461;BME280;68929;42.666;23.324;2023-06-19T03:34:31;94618.78;;;16.88;69.89
79461;BME280;68929;42.666;23.324;2023-06-19T03:36:56;94632.50;;;16.97;70.53
79461;BME280;68929;42.666;23.324;2023-06-19T03:39:22;94621.81;;;16.97;69.13
79461;BME280;68929;42.666;23.324;2023-06-19T03:41:48;94628.78;;;16.98;68.88
79461;BME280;68929;42.666;23.324;2023-06-19T03:44:13;94624.44;;;16.92;69.55
79461;BME280;68929;42.666;23.324;2023-06-19T03:46:38;94621.31;;;17.00;71.83
79461;BME280;68929;42.666;23.324;2023-06-19T03:49:04;94622.97;;;17.06;68.23
79461;BME280;68929;42.666;23.324;2023-06-19T03:51:30;94619.19;;;17.02;68.62
79461;BME280;68929;42.666;23.324;2023-06-19T03:53:55;94640.44;;;17.18;70.12
79461;BME280;68929;42.666;23.324;2023-06-19T03:56:21;94615.03;;;17.16;66.90
79461;BME280;68929;42.666;23.324;2023-06-19T03:58:46;94637.31;;;17.58;67.31
79461;BME280;68929;42.666;23.324;2023-06-19T04:01:11;94624.63;;;17.75;64.67
79461;BME280;68929;42.666;23.324;2023-06-19T04:03:37;94631.56;;;17.76;67.09
79461;BME280;68929;42.666;23.324;2023-06-19T04:06:02;94631.06;;;17.79;68.52
79461;BME280;68929;42.666;23.324;2023-06-19T04:08:28;94618.28;;;17.91;66.02
79461;BME280;68929;42.666;23.324;2023-06-19T04:10:53;94615.63;;;17.96;63.83
79461;BME280;68929;42.666;23.324;2023-06-19T04:13:18;94623.41;;;17.98;66.51
79461;BME280;68929;42.666;23.324;2023-06-19T04:15:44;94622.72;;;18.22;64.30
79461;BME280;68929;42.666;23.324;2023-06-19T04:18:10;94624.84;;;18.25;63.50
79461;BME280;68929;42.666;23.324;2023-06-19T04:20:35;94617.94;;;18.34;62.66
79461;BME280;68929;42.666;23.324;2023-06-19T04:23:00;94628.25;;;18.68;62.84
79461;BME280;68929;42.666;23.324;2023-06-19T04:25:26;94630.44;;;18.86;62.83
79461;BME280;68929;42.666;23.324;2023-06-19T04:27:51;94621.84;;;18.74;62.40
79461;BME280;68929;42.666;23.324;2023-06-19T04:30:17;94628.03;;;18.89;61.53
79461;BME280;68929;42.666;23.324;2023-06-19T04:32:42;94614.41;;;19.16;60.37
79461;BME280;68929;42.666;23.324;2023-06-19T04:35:10;94614.44;;;19.56;61.04
79461;BME280;68929;42.666;23.324;2023-06-19T04:37:36;94631.59;;;19.60;59.30
79461;BME280;68929;42.666;23.324;2023-06-19T04:40:01;94605.59;;;19.61;61.01
79461;BME280;68929;42.666;23.324;2023-06-19T04:42:28;94618.16;;;19.80;59.24
79461;BME280;68929;42.666;23.324;2023-06-19T04:44:54;94611.72;;;19.81;58.23
79461;BME280;68929;42.666;23.324;2023-06-19T04:47:22;94613.75;;;20.30;57.45
79461;BME280;68929;42.666;23.324;2023-06-19T04:49:48;94620.75;;;20.31;58.28
79461;BME280;68929;42.666;23.324;2023-06-19T04:52:14;94616.09;;;20.46;57.98
79461;BME280;68929;42.666;23.324;2023-06-19T04:54:40;94625.06;;;20.86;56.68
79461;BME280;68929;42.666;23.324;2023-06-19T04:57:05;94608.94;;;20.81;54.50
79461;BME280;68929;42.666;23.324;2023-06-19T04:59:32;94609.41;;;20.44;57.39
79461;BME280;68929;42.666;23.324;2023-06-19T05:01:59;94625.38;;;20.74;55.44
79461;BME280;68929;42.666;23.324;2023-06-19T05:04:32;94614.69;;;20.64;56.42
79461;BME280;68929;42.666;23.324;2023-06-19T05:06:58;94628.13;;;20.64;56.65
79461;BME280;68929;42.666;23.324;2023-06-19T05:09:24;94614.78;;;20.44;55.60
79461;BME280;68929;42.666;23.324;2023-06-19T05:11:50;94608.22;;;20.70;55.12
79461;BME280;68929;42.666;23.324;2023-06-19T05:14:22;94633.97;;;20.76;54.42
79461;BME280;68929;42.666;23.324;2023-06-19T05:16:48;94618.00;;;20.46;55.34
79461;BME280;68929;42.666;23.324;2023-06-19T05:19:13;94624.72;;;20.38;55.77
79461;BME280;68929;42.666;23.324;2023-06-19T05:21:39;94635.22;;;20.30;57.92
79461;BME280;68929;42.666;23.324;2023-06-19T05:24:08;94641.63;;;20.44;55.96
79461;BME280;68929;42.666;23.324;2023-06-19T05:26:33;94630.94;;;20.34;56.57
79461;BME280;68929;42.666;23.324;2023-06-19T05:28:59;94637.66;;;20.11;57.15
79461;BME280;68929;42.666;23.324;2023-06-19T05:31:24;94645.44;;;20.33;55.97
79461;BME280;68929;42.666;23.324;2023-06-19T05:33:50;94640.13;;;19.98;59.19
79461;BME280;68929;42.666;23.324;2023-06-19T05:36:15;94649.69;;;20.44;57.26
79461;BME280;68929;42.666;23.324;2023-06-19T05:38:41;94641.69;;;20.24;57.34
79461;BME280;68929;42.666;23.324;2023-06-19T05:41:06;94666.91;;;20.33;56.64
79461;BME280;68929;42.666;23.324;2023-06-19T05:43:35;94659.13;;;20.16;57.62
79461;BME280;68929;42.666;23.324;2023-06-19T05:46:01;94640.09;;;20.13;57.76
79461;BME280;68929;42.666;23.324;2023-06-19T05:48:27;94655.31;;;20.42;56.59
79461;BME280;68929;42.666;23.324;2023-06-19T05:50:52;94658.41;;;20.75;55.52
79461;BME280;68929;42.666;23.324;2023-06-19T05:53:18;94651.69;;;20.77;56.59
79461;BME280;68929;42.666;23.324;2023-06-19T05:55:56;94650.38;;;20.75;55.51
79461;BME280;68929;42.666;23.324;2023-06-19T05:58:22;94639.94;;;20.63;55.67
79461;BME280;68929;42.666;23.324;2023-06-19T06:00:49;94649.56;;;20.74;55.73
79461;BME280;68929;42.666;23.324;2023-06-19T06:03:14;94640.84;;;20.97;57.67
79461;BME280;68929;42.666;23.324;2023-06-19T06:05:40;94652.66;;;21.06;56.99
79461;BME280;68929;42.666;23.324;2023-06-19T06:08:05;94660.53;;;21.31;55.79
79461;BME280;68929;42.666;23.324;2023-06-19T06:10:36;94656.16;;;21.40;54.07
79461;BME280;68929;42.666;23.324;2023-06-19T06:13:02;94652.06;;;21.09;55.33
79461;BME280;68929;42.666;23.324;2023-06-19T06:15:28;94638.63;;;21.09;54.46
79461;BME280;68929;42.666;23.324;2023-06-19T06:18:03;94669.69;;;21.30;55.44
79461;BME280;68929;42.666;23.324;2023-06-19T06:20:31;94651.91;;;21.34;54.71
79461;BME280;68929;42.666;23.324;2023-06-19T06:22:56;94640.69;;;21.27;54.57
79461;BME280;68929;42.666;23.324;2023-06-19T06:25:22;94667.72;;;21.75;53.71
79461;BME280;68929;42.666;23.324;2023-06-19T06:27:47;94680.13;;;21.76;54.67
79461;BME280;68929;42.666;23.324;2023-06-19T06:30:14;94657.94;;;21.89;54.44
79461;BME280;68929;42.666;23.324;2023-06-19T06:32:39;94681.47;;;22.07;53.99
79461;BME280;68929;42.666;23.324;2023-06-19T06:35:05;94671.38;;;21.94;54.19
79461;BME280;68929;42.666;23.324;2023-06-19T06:37:34;94666.09;;;21.84;54.08
79461;BME280;68929;42.666;23.324;2023-06-19T06:40:00;94664.94;;;21.90;53.53
79461;BME280;68929;42.666;23.324;2023-06-19T06:42:26;94644.41;;;21.65;53.72
79461;BME280;68929;42.666;23.324;2023-06-19T06:44:51;94676.09;;;22.07;53.00
79461;BME280;68929;42.666;23.324;2023-06-19T06:47:16;94691.53;;;22.25;53.42
79461;BME280;68929;42.666;23.324;2023-06-19T06:49:43;94672.34;;;22.55;50.34
79461;BME280;68929;42.666;23.324;2023-06-19T06:52:08;94689.53;;;22.36;53.52
79461;BME280;68929;42.666;23.324;2023-06-19T06:54:33;94693.56;;;22.62;51.46
79461;BME280;68929;42.666;23.324;2023-06-19T06:56:59;94670.25;;;22.76;51.52
79461;BME280;68929;42.666;23.324;2023-06-19T06:59:31;94672.34;;;23.02;50.15
79461;BME280;68929;42.666;23.324;2023-06-19T07:01:57;94657.66;;;22.90;49.46
79461;BME280;68929;42.666;23.324;2023-06-19T07:04:22;94662.13;;;23.18;48.75
79461;BME280;68929;42.666;23.324;2023-06-19T07:06:48;94680.94;;;23.04;49.41
79461;BME280;68929;42.666;23.324;2023-06-19T07:09:17;94685.31;;;23.00;49.33
79461;BME280;68929;42.666;23.324;2023-06-19T07:11:50;94665.13;;;22.74;49.06
79461;BME280;68929;42.666;23.324;2023-06-19T07:14:15;94681.47;;;22.59;51.18
79461;BME280;68929;42.666;23.324;2023-06-19T07:16:45;94668.59;;;22.80;52.36
79461;BME280;68929;42.666;23.324;2023-06-19T07:19:11;94671.88;;;22.95;49.85
79461;BME280;68929;42.666;23.324;2023-06-19T07:21:37;94673.91;;;22.85;49.50
79461;BME280;68929;42.666;23.324;2023-06-19T07:24:04;94662.13;;;23.18;49.71
79461;BME280;68929;42.666;23.324;2023-06-19T07:26:32;94668.16;;;23.10;47.51
79461;BME280;68929;42.666;23.324;2023-06-19T07:28:58;94670.66;;;23.25;50.66
79461;BME280;68929;42.666;23.324;2023-06-19T07:31:23;94683.84;;;23.27;46.67
79461;BME280;68929;42.666;23.324;2023-06-19T07:33:49;94672.25;;;23.26;47.06
79461;BME280;68929;42.666;23.324;2023-06-19T07:36:14;94686.94;;;23.39;46.47
79461;BME280;68929;42.666;23.324;2023-06-19T07:38:45;94691.78;;;23.18;49.29
79461;BME280;68929;42.666;23.324;2023-06-19T07:41:11;94677.25;;;22.95;48.88
79461;BME280;68929;42.666;23.324;2023-06-19T07:43:37;94684.44;;;23.24;47.84
79461;BME280;68929;42.666;23.324;2023-06-19T07:46:03;94670.22;;;23.18;47.78
79461;BME280;68929;42.666;23.324;2023-06-19T07:48:29;94684.53;;;23.37;49.36
79461;BME280;68929;42.666;23.324;2023-06-19T07:50:55;94652.50;;;23.68;45.41
79461;BME280;68929;42.666;23.324;2023-06-19T07:53:20;94677.94;;;23.62;47.68
79461;BME280;68929;42.666;23.324;2023-06-19T07:55:46;94684.53;;;23.37;47.42
79461;BME280;68929;42.666;23.324;2023-06-19T07:58:11;94687.53;;;23.36;47.29
79461;BME280;68929;42.666;23.324;2023-06-19T08:00:37;94687.91;;;23.48;45.85
79461;BME280;68929;42.666;23.324;2023-06-19T08:03:02;94668.63;;;23.17;47.88
79461;BME280;68929;42.666;23.324;2023-06-19T08:05:28;94668.06;;;23.39;47.14
79461;BME280;68929;42.666;23.324;2023-06-19T08:07:53;94662.38;;;23.59;46.09
79461;BME280;68929;42.666;23.324;2023-06-19T08:10:25;94668.69;;;23.68;45.98
79461;BME280;68929;42.666;23.324;2023-06-19T08:12:50;94658.50;;;23.65;46.55
79461;BME280;68929;42.666;23.324;2023-06-19T08:15:16;94678.06;;;23.89;45.04
79461;BME280;68929;42.666;23.324;2023-06-19T08:17:47;94671.97;;;23.97;44.09
79461;BME280;68929;42.666;23.324;2023-06-19T08:20:12;94661.59;;;23.91;42.79
79461;BME280;68929;42.666;23.324;2023-06-19T08:22:37;94686.09;;;23.94;43.29
79461;BME280;68929;42.666;23.324;2023-06-19T08:25:05;94683.38;;;23.94;44.61
79461;BME280;68929;42.666;23.324;2023-06-19T08:27:31;94684.50;;;24.25;43.91
79461;BME280;68929;42.666;23.324;2023-06-19T08:29:56;94680.13;;;24.56;44.47
79461;BME280;68929;42.666;23.324;2023-06-19T08:32:21;94680.94;;;24.57;40.80
79461;BME280;68929;42.666;23.324;2023-06-19T08:34:47;94690.94;;;24.56;41.61
79461;BME280;68929;42.666;23.324;2023-06-19T08:37:18;94673.50;;;24.63;39.62
79461;BME280;68929;42.666;23.324;2023-06-19T08:39:46;94655.69;;;24.34;41.92
79461;BME280;68929;42.666;23.324;2023-06-19T08:42:12;94682.88;;;24.84;41.92
79461;BME280;68929;42.666;23.324;2023-06-19T08:44:37;94663.13;;;24.70;40.76
79461;BME280;68929;42.666;23.324;2023-06-19T08:47:03;94687.72;;;25.22;42.55
79461;BME280;68929;42.666;23.324;2023-06-19T08:49:30;94689.72;;;25.44;39.56
79461;BME280;68929;42.666;23.324;2023-06-19T08:51:56;94690.50;;;25.31;39.89
79461;BME280;68929;42.666;23.324;2023-06-19T08:54:21;94665.50;;;24.85;41.09
79461;BME280;68929;42.666;23.324;2023-06-19T08:56:52;94688.97;;;25.03;39.84
79461;BME280;68929;42.666;23.324;2023-06-19T08:59:19;94681.25;;;24.83;40.13
79461;BME280;68929;42.666;23.324;2023-06-19T09:01:53;94678.97;;;24.76;41.26
79461;BME280;68929;42.666;23.324;2023-06-19T09:04:20;94666.09;;;24.54;42.44
79461;BME280;68929;42.666;23.324;2023-06-19T09:07:02;94687.75;;;25.09;41.33
79461;BME280;68929;42.666;23.324;2023-06-19T09:09:31;94656.50;;;25.52;39.04
79461;BME280;68929;42.666;23.324;2023-06-19T09:12:05;94682.28;;;25.94;38.36
79461;BME280;68929;42.666;23.324;2023-06-19T09:14:39;94686.28;;;25.52;38.57
79461;BME280;68929;42.666;23.324;2023-06-19T09:17:07;94672.47;;;25.26;40.88
79461;BME280;68929;42.666;23.324;2023-06-19T09:19:34;94654.22;;;25.46;38.27
79461;BME280;68929;42.666;23.324;2023-06-19T09:22:03;94685.47;;;25.38;37.05
79461;BME280;68929;42.666;23.324;2023-06-19T09:24:37;94652.34;;;25.19;40.00
79461;BME280;68929;42.666;23.324;2023-06-19T09:27:10;94675.06;;;25.45;40.35
79461;BME280;68929;42.666;23.324;2023-06-19T09:29:44;94665.31;;;25.80;35.86
79461;BME280;68929;42.666;23.324;2023-06-19T09:32:27;94678.66;;;25.98;37.20
79461;BME280;68929;42.666;23.324;2023-06-19T09:34:55;94668.06;;;26.33;35.83
79461;BME280;68929;42.666;23.324;2023-06-19T09:37:27;94676.75;;;26.52;36.15
79461;BME280;68929;42.666;23.324;2023-06-19T09:40:07;94652.44;;;26.30;37.86
79461;BME280;68929;42.666;23.324;2023-06-19T09:42:48;94677.72;;;26.56;40.22
79461;BME280;68929;42.666;23.324;2023-06-19T09:45:21;94678.00;;;26.46;38.46
79461;BME280;68929;42.666;23.324;2023-06-19T09:47:52;94647.75;;;25.99;38.12
79461;BME280;68929;42.666;23.324;2023-06-19T09:50:22;94684.69;;;25.95;39.20
79461;BME280;68929;42.666;23.324;2023-06-19T09:52:51;94679.53;;;26.30;36.00
79461;BME280;68929;42.666;23.324;2023-06-19T09:55:17;94675.34;;;26.24;37.95
79461;BME280;68929;42.666;23.324;2023-06-19T09:57:47;94673.88;;;26.18;36.96
79461;BME280;68929;42.666;23.324;2023-06-19T10:00:15;94671.63;;;26.42;37.10
79461;BME280;68929;42.666;23.324;2023-06-19T10:02:45;94671.38;;;26.91;36.27
79461;BME280;68929;42.666;23.324;2023-06-19T10:05:11;94673.94;;;26.96;37.04
79461;BME280;68929;42.666;23.324;2023-06-19T10:07:42;94668.31;;;26.84;34.18
79461;BME280;68929;42.666;23.324;2023-06-19T10:12:55;94654.06;;;27.26;35.95
79461;BME280;68929;42.666;23.324;2023-06-19T10:15:25;94657.22;;;27.11;34.06
79461;BME280;68929;42.666;23.324;2023-06-19T10:17:59;94648.94;;;27.33;34.55
79461;BME280;68929;42.666;23.324;2023-06-19T10:23:08;94637.31;;;27.50;34.17
79461;BME280;68929;42.666;23.324;2023-06-19T10:25:41;94622.47;;;27.99;35.39
79461;BME280;68929;42.666;23.324;2023-06-19T10:30:57;94644.75;;;28.85;31.96
79461;BME280;68929;42.666;23.324;2023-06-19T10:33:29;94648.03;;;28.99;32.63
79461;BME280;68929;42.666;23.324;2023-06-19T10:35:57;94646.88;;;29.00;30.14
79461;BME280;68929;42.666;23.324;2023-06-19T10:38:23;94635.34;;;29.03;32.23
79461;BME280;68929;42.666;23.324;2023-06-19T10:40:48;94627.13;;;29.41;32.17
79461;BME280;68929;42.666;23.324;2023-06-19T10:43:22;94639.06;;;30.55;30.39
79461;BME280;68929;42.666;23.324;2023-06-19T10:46:02;94626.44;;;30.38;28.61
79461;BME280;68929;42.666;23.324;2023-06-19T10:48:27;94631.69;;;30.55;29.17
79461;BME280;68929;42.666;23.324;2023-06-19T10:50:56;94620.47;;;30.81;29.96
79461;BME280;68929;42.666;23.324;2023-06-19T10:53:38;94632.38;;;31.49;29.49
79461;BME280;68929;42.666;23.324;2023-06-19T10:56:20;94641.69;;;30.51;30.45
79461;BME280;68929;42.666;23.324;2023-06-19T10:58:45;94614.19;;;30.68;28.48
79461;BME280;68929;42.666;23.324;2023-06-19T11:01:18;94620.22;;;30.62;31.92
79461;BME280;68929;42.666;23.324;2023-06-19T11:03:46;94637.84;;;30.76;30.80
79461;BME280;68929;42.666;23.324;2023-06-19T11:06:30;94619.22;;;31.03;29.72
79461;BME280;68929;42.666;23.324;2023-06-19T11:08:57;94629.31;;;31.26;29.87
79461;BME280;68929;42.666;23.324;2023-06-19T11:11:37;94625.91;;;31.17;29.21
79461;BME280;68929;42.666;23.324;2023-06-19T11:14:03;94606.06;;;29.70;33.70
79461;BME280;68929;42.666;23.324;2023-06-19T11:16:29;94604.09;;;30.24;32.45
79461;BME280;68929;42.666;23.324;2023-06-19T11:18:57;94618.03;;;29.78;33.76
79461;BME280;68929;42.666;23.324;2023-06-19T11:21:30;94630.28;;;28.93;34.55
79461;BME280;68929;42.666;23.324;2023-06-19T11:23:58;94617.97;;;28.66;34.43
79461;BME280;68929;42.666;23.324;2023-06-19T11:26:26;94625.97;;;27.91;36.87
79461;BME280;68929;42.666;23.324;2023-06-19T11:28:53;94614.19;;;28.79;34.42
79461;BME280;68929;42.666;23.324;2023-06-19T11:31:25;94620.34;;;29.88;34.81
79461;BME280;68929;42.666;23.324;2023-06-19T11:33:59;94598.63;;;31.69;30.70
79461;BME280;68929;42.666;23.324;2023-06-19T11:36:27;94618.22;;;32.42;29.87
79461;BME280;68929;42.666;23.324;2023-06-19T11:38:53;94611.84;;;32.22;30.04
79461;BME280;68929;42.666;23.324;2023-06-19T11:41:29;94605.66;;;32.10;29.85
79461;BME280;68929;42.666;23.324;2023-06-19T11:44:07;94590.25;;;31.38;31.26
79461;BME280;68929;42.666;23.324;2023-06-19T11:46:35;94607.91;;;32.36;32.50
79461;BME280;68929;42.666;23.324;2023-06-19T11:49:14;94596.63;;;31.54;31.23
79461;BME280;68929;42.666;23.324;2023-06-19T11:51:42;94604.59;;;29.52;33.00
79461;BME280;68929;42.666;23.324;2023-06-19T11:54:08;94605.00;;;28.63;37.89
79461;BME280;68929;42.666;23.324;2023-06-19T11:56:35;94595.66;;;30.05;34.47
79461;BME280;68929;42.666;23.324;2023-06-19T11:59:04;94597.59;;;31.10;32.82
79461;BME280;68929;42.666;23.324;2023-06-19T12:01:34;94582.88;;;31.38;31.47
79461;BME280;68929;42.666;23.324;2023-06-19T12:04:00;94586.75;;;32.64;31.51
79461;BME280;68929;42.666;23.324;2023-06-19T12:06:30;94576.84;;;32.90;31.22
79461;BME280;68929;42.666;23.324;2023-06-19T12:08:56;94593.28;;;31.73;30.68
79461;BME280;68929;42.666;23.324;2023-06-19T12:11:24;94599.84;;;30.35;32.76
79461;BME280;68929;42.666;23.324;2023-06-19T12:13:50;94601.94;;;30.99;31.79
79461;BME280;68929;42.666;23.324;2023-06-19T12:16:18;94610.13;;;30.87;33.09
79461;BME280;68929;42.666;23.324;2023-06-19T12:18:43;94601.88;;;32.14;30.65
79461;BME280;68929;42.666;23.324;2023-06-19T12:21:09;94598.66;;;30.93;31.55
79461;BME280;68929;42.666;23.324;2023-06-19T12:23:34;94588.03;;;30.11;34.66
79461;BME280;68929;42.666;23.324;2023-06-19T12:26:07;94571.56;;;31.00;32.88
79461;BME280;68929;42.666;23.324;2023-06-19T12:28:32;94582.03;;;32.17;30.27
79461;BME280;68929;42.666;23.324;2023-06-19T12:30:57;94564.03;;;33.10;29.17
79461;BME280;68929;42.666;23.324;2023-06-19T12:33:23;94591.25;;;32.72;29.66
79461;BME280;68929;42.666;23.324;2023-06-19T12:35:49;94573.16;;;32.67;29.13
79461;BME280;68929;42.666;23.324;2023-06-19T12:38:15;94581.81;;;32.54;30.26
79461;BME280;68929;42.666;23.324;2023-06-19T12:40:45;94584.34;;;32.78;29.09
79461;BME280;68929;42.666;23.324;2023-06-19T12:43:11;94586.66;;;33.42;30.18
79461;BME280;68929;42.666;23.324;2023-06-19T12:45:36;94569.59;;;31.92;30.75
79461;BME280;68929;42.666;23.324;2023-06-19T12:48:01;94574.84;;;31.18;31.81
79461;BME280;68929;42.666;23.324;2023-06-19T12:50:27;94561.59;;;31.44;32.21
79461;BME280;68929;42.666;23.324;2023-06-19T12:52:52;94581.63;;;31.76;31.50
79461;BME280;68929;42.666;23.324;2023-06-19T12:55:17;94566.72;;;31.45;30.09
79461;BME280;68929;42.666;23.324;2023-06-19T12:57:43;94570.31;;;31.62;30.87
79461;BME280;68929;42.666;23.324;2023-06-19T13:00:11;94591.75;;;31.47;30.12
79461;BME280;68929;42.666;23.324;2023-06-19T13:02:48;94559.13;;;31.15;30.46